LHR weather

London Heathrow Airport
London, England, United Kingdom

Public forecast

Using degrees Celsius for public forecast. Weather courtesy of forecast.io.

Current aviation weather report (METAR) for London Heathrow Airport

Retrieved 2019/10/20 20:20 UTC (38 minutes ago):

EGLL 202020Z AUTO 36007KT 330V040 9999 FEW016/// SCT028/// OVC040/// 11/09 Q1013

Aviation forecast (TAF) for London Heathrow Airport

Retrieved 2019/10/20 18:00 UTC (3 hours ago):

TAF EGLL 201701Z 2018/2124 36010KT 9999 SCT025 TEMPO 2018/2110 BKN012 PROB30 TEMPO 2100/2107 8000 BKN009 PROB30 2122/2124 8000